Time,TemperatureF,DewpointF,PressureIn,WindDirection,WindDirectionDegrees,WindSpeedMPH,WindSpeedGustMPH,Humidity,HourlyPrecipIn,Conditions,Clouds,dailyrainin,SoftwareType,DateUTC
2013-04-14 00:11:00,44.9,36.0,29.94,SSE,164,0.0,-999.0,72,-99.99,,,0.00,weatherlink.com 1.10,2013-04-14 04:11:00,
2013-04-14 00:26:00,44.7,37.0,29.94,SSE,164,0.0,-999.0,75,-99.99,,,0.00,weatherlink.com 1.10,2013-04-14 04:26:00,
2013-04-14 00:41:00,44.5,37.0,29.94,SSE,164,0.0,-999.0,74,-99.99,,,0.00,weatherlink.com 1.10,2013-04-14 04:41:00,
2013-04-14 00:56:00,44.5,37.0,29.95,SSE,164,0.0,-999.0,74,-99.99,,,0.00,weatherlink.com 1.10,2013-04-14 04:56:00,
2013-04-14 01:11:00,44.5,37.0,29.95,SSE,164,0.0,-999.0,74,-99.99,,,0.00,weatherlink.com 1.10,2013-04-14 05:11:00,
2013-04-14 01:26:00,44.5,37.0,29.95,SSE,164,0.0,-999.0,75,-99.99,,,0.00,weatherlink.com 1.10,2013-04-14 05:26:00,
2013-04-14 01:41:00,44.5,37.0,29.94,SSE,164,0.0,-999.0,74,-99.99,,,0.00,weatherlink.com 1.10,2013-04-14 05:41:00,
2013-04-14 01:56:00,44.3,37.0,29.95,SSE,164,0.0,-999.0,76,-99.99,,,0.00,weatherlink.com 1.10,2013-04-14 05:56:00,
2013-04-14 02:11:00,44.1,36.0,29.94,SSE,164,0.0,-999.0,74,-99.99,,,0.00,weatherlink.com 1.10,2013-04-14 06:11:00,
2013-04-14 02:26:00,44.2,36.0,29.94,SSE,164,0.0,-999.0,74,-99.99,,,0.00,weatherlink.com 1.10,2013-04-14 06:26:00,
2013-04-14 02:41:00,44.2,36.0,29.93,SSE,164,0.0,-999.0,74,-99.99,,,0.00,weatherlink.com 1.10,2013-04-14 06:41:00,
2013-04-14 02:56:00,44.2,37.0,29.93,SSE,164,0.0,-999.0,75,-99.99,,,0.00,weatherlink.com 1.10,2013-04-14 06:56:00,
2013-04-14 03:11:00,44.0,36.0,29.93,SSE,164,0.0,-999.0,73,-99.99,,,0.00,weatherlink.com 1.10,2013-04-14 07:11:00,
2013-04-14 03:26:00,44.0,36.0,29.93,SSE,164,0.0,-999.0,74,-99.99,,,0.00,weatherlink.com 1.10,2013-04-14 07:26:00,
2013-04-14 03:41:00,43.9,36.0,29.93,SSE,164,0.0,-999.0,74,-99.99,,,0.00,weatherlink.com 1.10,2013-04-14 07:41:00,
2013-04-14 03:56:00,43.8,36.0,29.93,SSE,164,0.0,-999.0,74,-99.99,,,0.00,weatherlink.com 1.10,2013-04-14 07:56:00,
2013-04-14 04:11:00,43.7,36.0,29.93,SSE,164,0.0,-999.0,74,-99.99,,,0.00,weatherlink.com 1.10,2013-04-14 08:11:00,
2013-04-14 04:26:00,43.4,36.0,29.93,SSE,164,0.0,-999.0,74,-99.99,,,0.00,weatherlink.com 1.10,2013-04-14 08:26:00,
2013-04-14 04:41:00,43.1,35.0,29.94,SSE,164,0.0,-999.0,74,-99.99,,,0.00,weatherlink.com 1.10,2013-04-14 08:41:00,
2013-04-14 05:11:00,42.4,36.0,29.95,SSE,164,0.0,-999.0,77,-99.99,,,0.00,weatherlink.com 1.10,2013-04-14 09:11:00,
2013-04-14 05:26:00,42.3,35.0,29.95,SSE,164,0.0,-999.0,76,-99.99,,,0.00,weatherlink.com 1.10,2013-04-14 09:26:00,
2013-04-14 05:41:00,41.7,35.0,29.94,SSE,164,0.0,-999.0,77,-99.99,,,0.00,weatherlink.com 1.10,2013-04-14 09:41:00,
2013-04-14 05:56:00,41.0,35.0,29.95,SSE,164,0.0,-999.0,79,-99.99,,,0.00,weatherlink.com 1.10,2013-04-14 09:56:00,
2013-04-14 06:11:00,40.6,35.0,29.95,SSE,164,0.0,-999.0,79,-99.99,,,0.00,weatherlink.com 1.10,2013-04-14 10:11:00,
2013-04-14 06:26:00,40.3,34.0,29.96,SSE,164,0.0,-999.0,79,-99.99,,,0.00,weatherlink.com 1.10,2013-04-14 10:26:00,
2013-04-14 06:41:00,40.6,35.0,29.97,SSE,164,0.0,-999.0,79,-99.99,,,0.00,weatherlink.com 1.10,2013-04-14 10:41:00,
2013-04-14 06:56:00,41.1,35.0,29.98,SSE,164,0.0,-999.0,78,-99.99,,,0.00,weatherlink.com 1.10,2013-04-14 10:56:00,
2013-04-14 07:11:00,41.5,36.0,29.99,SSE,164,0.0,-999.0,82,-99.99,,,0.00,weatherlink.com 1.10,2013-04-14 11:11:00,
2013-04-14 07:26:00,41.7,37.0,29.98,SSE,164,0.0,-999.0,83,-99.99,,,0.00,weatherlink.com 1.10,2013-04-14 11:26:00,
2013-04-14 07:41:00,42.1,38.0,30.00,SSE,164,0.0,-999.0,84,-99.99,,,0.00,weatherlink.com 1.10,2013-04-14 11:41:00,
2013-04-14 07:56:00,43.8,35.0,30.01,NW,316,4.0,-999.0,72,-99.99,,,0.00,weatherlink.com 1.10,2013-04-14 11:56:00,
2013-04-14 08:11:00,44.9,35.0,30.01,SSE,150,0.0,-999.0,69,-99.99,,,0.00,weatherlink.com 1.10,2013-04-14 12:11:00,
2013-04-14 08:26:00,45.4,33.0,30.01,SSW,210,1.0,-999.0,63,-99.99,,,0.00,weatherlink.com 1.10,2013-04-14 12:26:00,
2013-04-14 08:41:00,45.9,33.0,30.01,East,88,2.0,-999.0,61,-99.99,,,0.00,weatherlink.com 1.10,2013-04-14 12:41:00,
2013-04-14 08:56:00,46.1,32.0,30.02,WSW,250,4.0,-999.0,58,-99.99,,,0.00,weatherlink.com 1.10,2013-04-14 12:56:00,
2013-04-14 09:11:00,46.5,31.0,30.02,SE,125,5.0,-999.0,56,-99.99,,,0.00,weatherlink.com 1.10,2013-04-14 13:11:00,
2013-04-14 09:26:00,46.1,31.0,30.02,South,182,0.0,-999.0,56,-99.99,,,0.00,weatherlink.com 1.10,2013-04-14 13:26:00,
2013-04-14 09:41:00,46.4,31.0,30.02,WNW,288,0.0,-999.0,55,-99.99,,,0.00,weatherlink.com 1.10,2013-04-14 13:41:00,
2013-04-14 10:11:00,48.0,30.0,30.03,ESE,119,5.0,-999.0,51,-99.99,,,0.00,weatherlink.com 1.10,2013-04-14 14:11:00,
2013-04-14 10:26:00,48.6,30.0,30.03,SSW,211,0.0,-999.0,49,-99.99,,,0.00,weatherlink.com 1.10,2013-04-14 14:26:00,
2013-04-14 10:41:00,48.0,29.0,30.03,WNW,296,0.0,-999.0,48,-99.99,,,0.00,weatherlink.com 1.10,2013-04-14 14:41:00,
2013-04-14 11:11:00,47.0,29.0,30.05,SSW,198,4.0,-999.0,50,-99.99,,,0.00,weatherlink.com 1.10,2013-04-14 15:11:00,
2013-04-14 11:26:00,47.6,30.0,30.05,SSE,167,0.0,-999.0,51,-99.99,,,0.00,weatherlink.com 1.10,2013-04-14 15:26:00,
2013-04-14 11:41:00,47.9,29.0,30.05,WSW,250,0.0,-999.0,49,-99.99,,,0.00,weatherlink.com 1.10,2013-04-14 15:41:00,
2013-04-14 11:56:00,48.8,29.0,30.05,SSW,205,4.0,-999.0,46,-99.99,,,0.00,weatherlink.com 1.10,2013-04-14 15:56:00,
2013-04-14 12:11:00,49.2,29.0,30.05,SSE,148,2.0,-999.0,45,-99.99,,,0.00,weatherlink.com 1.10,2013-04-14 16:11:00,
2013-04-14 12:26:00,49.5,29.0,30.05,South,187,5.0,-999.0,46,-99.99,,,0.00,weatherlink.com 1.10,2013-04-14 16:26:00,
2013-04-14 12:42:00,49.9,30.0,30.05,SSW,202,2.0,-999.0,46,-99.99,,,0.00,weatherlink.com 1.10,2013-04-14 16:42:00,
2013-04-14 12:56:00,50.4,28.0,30.04,SW,225,3.0,-999.0,43,-99.99,,,0.00,weatherlink.com 1.10,2013-04-14 16:56:00,
2013-04-14 13:11:00,49.8,28.0,30.04,WSW,242,1.0,-999.0,43,-99.99,,,0.00,weatherlink.com 1.10,2013-04-14 17:11:00,
2013-04-14 13:41:00,51.7,28.0,30.05,SSW,212,6.0,-999.0,40,-99.99,,,0.00,weatherlink.com 1.10,2013-04-14 17:41:00,
2013-04-14 14:11:00,50.7,28.0,30.05,East,93,6.0,-999.0,42,-99.99,,,0.00,weatherlink.com 1.10,2013-04-14 18:11:00,
2013-04-14 14:27:00,50.8,29.0,30.05,SSW,194,4.0,-999.0,43,-99.99,,,0.00,weatherlink.com 1.10,2013-04-14 18:27:00,
2013-04-14 14:41:00,50.0,29.0,30.06,WSW,248,0.0,-999.0,44,-99.99,,,0.00,weatherlink.com 1.10,2013-04-14 18:41:00,
2013-04-14 14:56:00,49.5,29.0,30.06,East,90,6.0,-999.0,46,-99.99,,,0.00,weatherlink.com 1.10,2013-04-14 18:56:00,
2013-04-14 15:11:00,49.6,28.0,30.06,West,271,11.0,-999.0,44,-99.99,,,0.00,weatherlink.com 1.10,2013-04-14 19:11:00,
2013-04-14 15:26:00,50.1,29.0,30.06,WSW,244,0.0,-999.0,45,-99.99,,,0.00,weatherlink.com 1.10,2013-04-14 19:26:00,
2013-04-14 15:41:00,51.1,29.0,30.06,SSE,161,11.0,-999.0,43,-99.99,,,0.00,weatherlink.com 1.10,2013-04-14 19:41:00,
2013-04-14 15:56:00,50.5,29.0,30.06,WSW,244,4.0,-999.0,43,-99.99,,,0.00,weatherlink.com 1.10,2013-04-14 19:56:00,
2013-04-14 16:11:00,51.0,29.0,30.06,SW,232,0.0,-999.0,43,-99.99,,,0.00,weatherlink.com 1.10,2013-04-14 20:11:00,
2013-04-14 16:27:00,51.0,28.0,30.07,West,269,4.0,-999.0,42,-99.99,,,0.00,weatherlink.com 1.10,2013-04-14 20:27:00,
2013-04-14 16:56:00,50.0,28.0,30.09,WSW,254,8.0,-999.0,42,-99.99,,,0.00,weatherlink.com 1.10,2013-04-14 20:56:00,
2013-04-14 17:11:00,49.7,28.0,30.10,SSW,209,1.0,-999.0,44,-99.99,,,0.00,weatherlink.com 1.10,2013-04-14 21:11:00,
2013-04-14 17:26:00,49.7,28.0,30.10,East,91,5.0,-999.0,44,-99.99,,,0.00,weatherlink.com 1.10,2013-04-14 21:26:00,
2013-04-14 17:41:00,49.5,28.0,30.10,West,279,1.0,-999.0,44,-99.99,,,0.00,weatherlink.com 1.10,2013-04-14 21:41:00,
2013-04-14 17:57:00,49.1,29.0,30.11,WNW,298,0.0,-999.0,46,-99.99,,,0.00,weatherlink.com 1.10,2013-04-14 21:57:00,
2013-04-14 18:11:00,48.5,28.0,30.11,WNW,298,4.0,-999.0,46,-99.99,,,0.00,weatherlink.com 1.10,2013-04-14 22:11:00,
2013-04-14 18:26:00,48.0,28.0,30.11,West,279,1.0,-999.0,46,-99.99,,,0.00,weatherlink.com 1.10,2013-04-14 22:26:00,
2013-04-14 18:56:00,47.1,28.0,30.12,WNW,284,0.0,-999.0,48,-99.99,,,0.00,weatherlink.com 1.10,2013-04-14 22:56:00,
2013-04-14 19:11:00,46.7,27.0,30.13,WNW,300,0.0,-999.0,47,-99.99,,,0.00,weatherlink.com 1.10,2013-04-14 23:11:00,
2013-04-14 19:26:00,46.4,27.0,30.14,West,264,0.0,-999.0,47,-99.99,,,0.00,weatherlink.com 1.10,2013-04-14 23:26:00,
2013-04-14 19:41:00,46.0,27.0,30.15,West,263,0.0,-999.0,48,-99.99,,,0.00,weatherlink.com 1.10,2013-04-14 23:41:00,
2013-04-14 19:56:00,45.4,28.0,30.16,WNW,301,1.0,-999.0,50,-99.99,,,0.00,weatherlink.com 1.10,2013-04-14 23:56:00,
2013-04-14 20:11:00,44.8,28.0,30.16,WNW,300,0.0,-999.0,52,-99.99,,,0.00,weatherlink.com 1.10,2013-04-15 00:11:00,
2013-04-14 20:27:00,44.2,28.0,30.17,WNW,298,0.0,-999.0,53,-99.99,,,0.00,weatherlink.com 1.10,2013-04-15 00:27:00,
2013-04-14 20:41:00,43.3,29.0,30.18,WNW,300,0.0,-999.0,57,-99.99,,,0.00,weatherlink.com 1.10,2013-04-15 00:41:00,
2013-04-14 20:56:00,42.3,29.0,30.19,WNW,299,0.0,-999.0,59,-99.99,,,0.00,weatherlink.com 1.10,2013-04-15 00:56:00,
2013-04-14 21:11:00,41.7,29.0,30.19,WNW,293,0.0,-999.0,61,-99.99,,,0.00,weatherlink.com 1.10,2013-04-15 01:11:00,
2013-04-14 21:41:00,40.3,29.0,30.19,West,281,0.0,-999.0,64,-99.99,,,0.00,weatherlink.com 1.10,2013-04-15 01:41:00,
2013-04-14 21:56:00,40.0,29.0,30.19,West,272,0.0,-999.0,64,-99.99,,,0.00,weatherlink.com 1.10,2013-04-15 01:56:00,
2013-04-14 22:11:00,39.6,29.0,30.20,West,260,0.0,-999.0,65,-99.99,,,0.00,weatherlink.com 1.10,2013-04-15 02:11:00,
2013-04-14 22:26:00,39.2,30.0,30.20,WNW,300,0.0,-999.0,69,-99.99,,,0.00,weatherlink.com 1.10,2013-04-15 02:26:00,
2013-04-14 22:56:00,37.9,30.0,30.20,SW,223,0.0,-999.0,72,-99.99,,,0.00,weatherlink.com 1.10,2013-04-15 02:56:00,
2013-04-14 23:11:00,37.7,29.0,30.20,SSW,210,0.0,-999.0,70,-99.99,,,0.00,weatherlink.com 1.10,2013-04-15 03:11:00,
2013-04-14 23:26:00,37.4,29.0,30.20,SW,219,0.0,-999.0,71,-99.99,,,0.00,weatherlink.com 1.10,2013-04-15 03:26:00,
2013-04-14 23:41:00,37.0,30.0,30.20,SW,219,0.0,-999.0,75,-99.99,,,0.00,weatherlink.com 1.10,2013-04-15 03:41:00,
2013-04-14 23:56:00,36.4,29.0,30.20,WNW,296,0.0,-999.0,74,-99.99,,,0.00,weatherlink.com 1.10,2013-04-15 03:56:00,